Time;durP1;ratioP1;P1;durP2;ratioP2;P2;SDS_P1;SDS_P2;PMS_P1;PMS_P2;Temp;Humidity;BMP_temperature;BMP_pressure;BME280_temperature;BME280_humidity;BME280_pressure;Samples;Min_cycle;Max_cycle;Signal;HPM_P1;HPM_P2
2020/12/21 00:00:09;;;;;;;62.70;40.95;;;6.20;99.90;;;;;;5069524;28;20051;-54
2020/12/21 00:03:16;;;;;;;61.30;40.72;;;6.10;99.90;;;;;;5069768;28;20035;-54
2020/12/21 00:06:20;;;;;;;168.80;47.85;;;6.00;99.90;;;;;;5080357;28;20414;-54
2020/12/21 00:09:25;;;;;;;210.80;53.63;;;5.80;99.90;;;;;;5069386;28;20047;-54
2020/12/21 00:12:32;;;;;;;280.52;60.50;;;5.70;99.90;;;;;;5069698;28;20043;-54
2020/12/21 00:15:36;;;;;;;82.90;48.15;;;5.70;99.90;;;;;;5070007;28;20051;-54
2020/12/21 00:18:40;;;;;;;79.38;43.85;;;5.70;99.90;;;;;;5069370;28;20055;-55
2020/12/21 00:21:49;;;;;;;74.75;42.08;;;5.60;99.90;;;;;;5069645;28;20407;-55
2020/12/21 00:24:53;;;;;;;63.50;37.00;;;5.40;99.90;;;;;;5069679;28;20044;-53
2020/12/21 00:27:57;;;;;;;59.42;35.80;;;5.40;99.90;;;;;;5069243;28;20056;-54
2020/12/21 00:31:01;;;;;;;59.50;36.65;;;5.30;99.90;;;;;;5069346;28;20055;-54
2020/12/21 00:34:06;;;;;;;63.40;36.80;;;5.30;99.90;;;;;;5070804;28;20047;-54
2020/12/21 00:37:10;;;;;;;69.32;39.10;;;5.40;99.90;;;;;;5073508;28;20051;-55
2020/12/21 00:40:14;;;;;;;67.20;42.50;;;5.40;99.90;;;;;;5073032;28;20406;-55
2020/12/21 00:43:18;;;;;;;88.25;54.42;;;5.50;99.90;;;;;;5082834;28;20040;-54
2020/12/21 00:46:27;;;;;;;98.60;58.15;;;5.60;99.90;;;;;;5073335;28;20055;-55
2020/12/21 00:49:31;;;;;;;95.63;58.33;;;5.70;99.90;;;;;;5060594;28;20053;-55
2020/12/21 00:52:35;;;;;;;111.45;66.53;;;5.70;99.90;;;;;;5061002;28;20074;-53
2020/12/21 00:55:40;;;;;;;110.55;67.55;;;5.70;99.90;;;;;;5073105;28;20063;-55
2020/12/21 00:58:45;;;;;;;96.15;57.38;;;5.80;99.90;;;;;;5072544;28;20043;-57
2020/12/21 01:01:50;;;;;;;87.85;56.85;;;5.80;99.90;;;;;;5072436;28;20048;-55
2020/12/21 01:04:54;;;;;;;88.65;55.53;;;5.80;99.90;;;;;;5072825;28;20051;-59
2020/12/21 01:07:58;;;;;;;94.88;56.80;;;5.80;99.90;;;;;;5072092;28;20112;-55
2020/12/21 01:11:09;;;;;;;102.78;59.58;;;5.70;99.90;;;;;;5071945;28;20162;-59
2020/12/21 01:14:13;;;;;;;102.70;62.63;;;5.60;99.90;;;;;;5072060;28;20115;-54
2020/12/21 01:17:17;;;;;;;88.78;54.55;;;5.50;99.90;;;;;;5072464;28;20039;-55
2020/12/21 01:20:21;;;;;;;147.43;57.65;;;5.30;99.90;;;;;;5071805;28;20223;-59
2020/12/21 01:23:25;;;;;;;90.57;54.08;;;5.20;99.90;;;;;;5072316;28;20414;-57
2020/12/21 01:26:30;;;;;;;85.28;52.40;;;5.20;99.90;;;;;;5073844;28;20051;-54
2020/12/21 01:29:34;;;;;;;76.70;48.58;;;5.10;99.90;;;;;;5071705;28;20043;-55
2020/12/21 01:32:39;;;;;;;99.07;51.78;;;5.00;99.90;;;;;;5071931;28;20047;-54
2020/12/21 01:35:43;;;;;;;98.93;56.85;;;4.90;99.90;;;;;;5071979;28;20044;-56
2020/12/21 01:38:47;;;;;;;91.05;56.85;;;5.00;99.90;;;;;;5071438;28;20067;-55
2020/12/21 01:41:51;;;;;;;105.68;61.55;;;5.10;99.90;;;;;;5071607;28;20048;-54
2020/12/21 01:44:55;;;;;;;87.88;53.63;;;5.20;99.90;;;;;;5071073;28;20036;-52
2020/12/21 01:48:00;;;;;;;109.82;66.65;;;5.10;99.90;;;;;;5071269;28;20111;-55
2020/12/21 01:51:07;;;;;;;174.88;102.00;;;5.10;99.90;;;;;;5071768;28;20051;-59
2020/12/21 01:54:12;;;;;;;127.70;75.78;;;5.30;99.90;;;;;;5071839;28;20044;-54
2020/12/21 01:57:16;;;;;;;107.75;66.32;;;5.20;99.90;;;;;;5071807;28;20043;-52
2020/12/21 02:00:20;;;;;;;109.38;67.22;;;5.20;99.90;;;;;;5070447;28;20051;-55
2020/12/21 02:03:24;;;;;;;117.97;72.28;;;5.20;99.90;;;;;;5071526;28;20514;-54
2020/12/21 02:06:28;;;;;;;101.63;61.17;;;5.20;99.90;;;;;;5079078;28;20398;-55
2020/12/21 02:09:33;;;;;;;82.45;48.92;;;5.20;99.90;;;;;;5070827;28;20040;-54
2020/12/21 02:12:37;;;;;;;100.95;60.00;;;5.20;99.90;;;;;;5071334;28;20052;-52
2020/12/21 02:15:41;;;;;;;539.10;82.57;;;5.20;99.90;;;;;;5070387;28;20051;-52
2020/12/21 02:19:04;;;;;;;522.25;68.88;;;5.00;99.90;;;;;;5070736;28;20051;-60
2020/12/21 02:22:11;;;;;;;112.00;48.55;;;4.70;99.90;;;;;;5071310;28;20051;-54
2020/12/21 02:25:16;;;;;;;166.90;50.90;;;4.40;99.90;;;;;;5071049;28;20044;-54
2020/12/21 02:28:20;;;;;;;319.73;64.38;;;4.30;99.90;;;;;;5070953;28;20036;-54
2020/12/21 02:31:25;;;;;;;290.83;60.13;;;4.30;99.90;;;;;;5070612;28;20063;-54
2020/12/21 02:34:29;;;;;;;79.97;44.80;;;4.30;99.90;;;;;;5070749;28;20119;-59
2020/12/21 02:37:34;;;;;;;76.38;47.67;;;4.30;99.90;;;;;;5071110;28;20060;-55
2020/12/21 02:40:41;;;;;;;84.97;49.97;;;4.40;99.90;;;;;;5069979;28;20040;-54
2020/12/21 02:43:45;;;;;;;88.30;51.75;;;4.50;99.90;;;;;;5080060;28;20472;-54
2020/12/21 02:46:49;;;;;;;108.57;61.13;;;4.60;99.90;;;;;;5070840;28;20042;-54
2020/12/21 02:49:53;;;;;;;86.07;52.72;;;4.70;99.90;;;;;;5069951;28;20043;-54
2020/12/21 02:52:58;;;;;;;83.78;49.05;;;4.80;99.90;;;;;;5070967;28;20043;-54
2020/12/21 02:56:05;;;;;;;92.18;51.45;;;4.70;99.90;;;;;;5070790;28;20055;-54
2020/12/21 02:59:09;;;;;;;94.32;55.90;;;4.70;99.90;;;;;;5070253;28;20051;-59
2020/12/21 03:02:13;;;;;;;89.80;52.30;;;4.70;99.90;;;;;;5070202;28;20039;-55
2020/12/21 03:05:17;;;;;;;83.88;50.90;;;4.70;99.90;;;;;;5070367;28;20043;-54
2020/12/21 03:08:22;;;;;;;83.55;51.75;;;4.70;99.90;;;;;;5070234;28;20506;-55
2020/12/21 03:11:27;;;;;;;82.68;50.33;;;4.70;99.90;;;;;;5070228;28;20047;-54
2020/12/21 03:14:30;;;;;;;78.30;47.33;;;4.70;99.90;;;;;;5070063;28;20040;-55
2020/12/21 03:17:34;;;;;;;76.38;46.60;;;4.70;99.90;;;;;;5069835;28;20039;-54
2020/12/21 03:20:38;;;;;;;83.93;49.72;;;4.60;99.90;;;;;;5068498;28;20056;-55
2020/12/21 03:23:43;;;;;;;82.65;47.90;;;4.60;99.90;;;;;;5069041;28;20052;-54
2020/12/21 03:26:47;;;;;;;76.32;46.55;;;4.70;99.90;;;;;;5081093;28;20039;-55
2020/12/21 03:29:51;;;;;;;311.73;52.30;;;4.70;99.90;;;;;;5074304;28;20410;-54
2020/12/21 03:32:55;;;;;;;132.85;43.58;;;4.40;99.90;;;;;;5083125;28;20513;-58
2020/12/21 03:35:59;;;;;;;76.90;41.50;;;4.10;99.90;;;;;;5088561;28;20051;-56
2020/12/21 03:39:03;;;;;;;77.20;43.65;;;3.90;99.90;;;;;;5080000;28;20325;-54
2020/12/21 03:42:07;;;;;;;75.75;44.65;;;3.90;99.90;;;;;;5101148;28;20513;-55
2020/12/21 03:45:11;;;;;;;75.40;42.53;;;3.90;99.90;;;;;;5096766;28;20146;-54
2020/12/21 03:48:15;;;;;;;79.40;39.30;;;3.90;99.90;;;;;;5103747;28;20055;-55
2020/12/21 03:51:19;;;;;;;71.43;41.13;;;3.90;99.90;;;;;;5103386;28;20050;-54
2020/12/21 03:54:23;;;;;;;70.05;40.45;;;3.70;99.90;;;;;;5089653;28;20517;-57
2020/12/21 03:57:28;;;;;;;66.47;38.17;;;3.70;99.90;;;;;;5090608;28;20054;-58
2020/12/21 04:00:32;;;;;;;73.60;43.75;;;3.80;99.90;;;;;;5083799;28;20042;-54
2020/12/21 04:03:36;;;;;;;68.20;40.13;;;3.90;99.90;;;;;;5095467;28;20114;-54
2020/12/21 04:06:40;;;;;;;57.53;34.15;;;3.90;99.90;;;;;;5099862;28;20062;-58
2020/12/21 04:09:43;;;;;;;54.85;33.90;;;3.90;99.90;;;;;;5102068;28;20055;-59
2020/12/21 04:12:48;;;;;;;49.35;30.50;;;4.00;99.90;;;;;;5099333;28;20043;-54
2020/12/21 04:15:53;;;;;;;40.40;23.50;;;4.10;99.90;;;;;;5084399;28;20059;-54
2020/12/21 04:18:57;;;;;;;43.78;25.27;;;4.20;99.90;;;;;;5095310;28;20050;-56
2020/12/21 04:22:01;;;;;;;44.10;27.50;;;4.20;99.90;;;;;;5094692;28;20043;-52
2020/12/21 04:25:05;;;;;;;46.10;27.95;;;4.20;99.90;;;;;;5096347;28;20398;-55
2020/12/21 04:28:09;;;;;;;43.38;27.77;;;4.10;99.90;;;;;;5079956;28;20047;-54
2020/12/21 04:31:14;;;;;;;47.33;29.40;;;4.10;99.90;;;;;;5084470;28;20046;-56
2020/12/21 04:34:18;;;;;;;43.97;27.25;;;4.10;99.90;;;;;;5095150;28;20039;-56
2020/12/21 04:37:22;;;;;;;46.72;28.13;;;4.10;99.90;;;;;;5095249;28;20055;-54
2020/12/21 04:40:26;;;;;;;49.53;29.65;;;4.00;99.90;;;;;;5095026;28;20063;-54
2020/12/21 04:43:32;;;;;;;42.50;26.10;;;4.00;99.90;;;;;;5100037;28;20058;-55
2020/12/21 04:46:36;;;;;;;41.50;25.85;;;3.90;99.90;;;;;;5084215;28;20042;-54
2020/12/21 04:49:41;;;;;;;42.33;25.42;;;3.80;99.90;;;;;;5094933;28;20050;-58
2020/12/21 04:52:51;;;;;;;47.88;28.67;;;3.80;99.90;;;;;;5094855;28;20070;-54
2020/12/21 04:55:55;;;;;;;49.22;28.63;;;3.80;99.90;;;;;;5094995;28;20051;-56
2020/12/21 04:59:00;;;;;;;55.28;35.67;;;3.80;99.90;;;;;;5097278;28;20524;-58
2020/12/21 05:02:05;;;;;;;51.05;30.83;;;3.90;99.90;;;;;;5097308;28;20062;-56
2020/12/21 05:05:09;;;;;;;49.92;29.33;;;3.80;99.90;;;;;;5081089;28;20532;-55
2020/12/21 05:08:15;;;;;;;44.17;27.20;;;3.70;99.90;;;;;;5094575;28;20038;-57
2020/12/21 05:11:19;;;;;;;52.72;30.65;;;3.60;99.90;;;;;;5094352;28;20042;-55
2020/12/21 05:14:37;;;;;;;52.60;31.83;;;3.50;99.90;;;;;;5096691;28;20055;-54
2020/12/21 05:17:41;;;;;;;56.53;34.83;;;3.40;99.90;;;;;;5100385;28;20063;-58
2020/12/21 05:20:55;;;;;;;56.42;32.53;;;3.50;99.90;;;;;;5087656;28;20050;-54
2020/12/21 05:24:01;;;;;;;59.38;34.30;;;3.50;99.90;;;;;;5091694;28;20406;-57
2020/12/21 05:27:16;;;;;;;56.08;32.50;;;3.60;99.90;;;;;;5098484;28;20042;-55
2020/12/21 05:30:20;;;;;;;53.00;31.40;;;3.60;99.90;;;;;;5093812;28;20043;-55
2020/12/21 05:33:25;;;;;;;56.85;34.55;;;3.60;99.90;;;;;;5093478;28;20047;-54
2020/12/21 05:36:31;;;;;;;54.92;32.95;;;3.70;99.90;;;;;;5100843;28;20051;-54
2020/12/21 05:39:45;;;;;;;57.78;33.00;;;3.70;99.90;;;;;;5102428;28;20054;-54
2020/12/21 05:42:50;;;;;;;55.08;32.40;;;3.70;99.90;;;;;;5089520;28;20047;-54
2020/12/21 05:46:05;;;;;;;51.97;32.30;;;3.70;99.90;;;;;;5090954;28;20039;-58
2020/12/21 05:49:09;;;;;;;58.67;34.42;;;3.70;99.90;;;;;;5094445;28;20072;-54
2020/12/21 05:52:25;;;;;;;76.82;47.05;;;3.70;99.90;;;;;;5089896;28;20462;-54
2020/12/21 05:55:29;;;;;;;74.28;43.03;;;3.70;99.90;;;;;;5092042;28;20651;-56
2020/12/21 05:58:36;;;;;;;84.95;50.97;;;3.70;99.90;;;;;;5087629;28;20497;-56
2020/12/21 06:01:41;;;;;;;89.43;50.45;;;3.70;99.90;;;;;;5089335;28;20078;-57
2020/12/21 06:04:49;;;;;;;83.68;47.28;;;3.70;99.90;;;;;;5079991;28;20075;-54
2020/12/21 06:08:13;;;;;;;112.20;51.47;;;3.60;99.90;;;;;;5085917;28;20047;-55
2020/12/21 06:11:21;;;;;;;69.40;38.28;;;3.60;99.90;;;;;;5087232;28;20066;-55
2020/12/21 06:14:25;;;;;;;75.70;41.20;;;3.50;99.90;;;;;;5088267;28;20062;-54
2020/12/21 06:17:30;;;;;;;102.65;44.63;;;3.30;99.90;;;;;;5073134;28;20115;-54
2020/12/21 06:20:43;;;;;;;611.80;91.22;;;3.20;99.90;;;;;;5066306;28;20055;-55
2020/12/21 06:23:47;;;;;;;68.32;44.13;;;3.30;99.90;;;;;;5089077;28;20055;-56
2020/12/21 06:26:55;;;;;;;247.13;51.28;;;3.30;99.90;;;;;;5090078;28;20394;-55
2020/12/21 06:29:59;;;;;;;154.65;47.05;;;3.30;99.90;;;;;;5088938;28;20043;-54
2020/12/21 06:33:04;;;;;;;289.45;53.95;;;3.30;99.90;;;;;;5095040;28;20082;-55
2020/12/21 06:36:10;;;;;;;151.98;42.83;;;3.30;99.90;;;;;;5088738;28;20067;-54
2020/12/21 06:39:24;;;;;;;80.20;42.65;;;3.30;99.90;;;;;;5087330;28;20055;-54
2020/12/21 06:42:29;;;;;;;95.18;52.05;;;3.20;99.90;;;;;;5089223;28;20650;-54
2020/12/21 06:45:36;;;;;;;95.30;54.25;;;3.20;99.90;;;;;;5085953;28;20039;-53
2020/12/21 06:48:41;;;;;;;91.57;52.50;;;3.30;99.90;;;;;;5086029;28;20042;-55
2020/12/21 06:51:46;;;;;;;83.57;49.15;;;3.30;99.90;;;;;;5084169;28;20044;-56
2020/12/21 06:54:53;;;;;;;82.45;46.00;;;3.30;99.90;;;;;;5088001;28;20046;-54
2020/12/21 06:57:57;;;;;;;74.60;44.58;;;3.40;99.90;;;;;;5084354;28;20039;-57
2020/12/21 07:01:02;;;;;;;72.90;44.25;;;3.40;99.90;;;;;;5092030;28;20516;-54
2020/12/21 07:04:20;;;;;;;81.13;49.45;;;3.40;99.90;;;;;;5083904;28;20062;-57
2020/12/21 07:07:25;;;;;;;75.78;45.30;;;3.50;99.90;;;;;;5093317;28;20492;-57
2020/12/21 07:10:31;;;;;;;81.78;49.45;;;3.50;99.90;;;;;;5096346;28;20101;-57
2020/12/21 07:13:36;;;;;;;73.60;44.88;;;3.50;99.90;;;;;;5091871;28;20039;-55
2020/12/21 07:16:40;;;;;;;72.97;44.75;;;3.70;99.90;;;;;;5096070;28;20057;-54
2020/12/21 07:19:44;;;;;;;62.10;37.67;;;4.80;99.90;;;;;;5091180;28;20034;-59
2020/12/21 07:22:49;;;;;;;55.90;35.88;;;6.00;99.90;;;;;;5102396;28;20051;-59
2020/12/21 07:25:53;;;;;;;47.58;30.88;;;6.70;99.90;;;;;;5088646;28;20043;-60
2020/12/21 07:28:57;;;;;;;47.95;29.80;;;7.20;99.90;;;;;;5082343;28;20398;-58
2020/12/21 07:32:03;;;;;;;37.17;25.48;;;7.70;99.90;;;;;;5079316;28;20051;-54
2020/12/21 07:35:07;;;;;;;136.48;28.05;;;9.00;99.90;;;;;;5090689;28;20051;-58
2020/12/21 07:38:12;;;;;;;78.75;23.13;;;9.70;99.90;;;;;;5089280;28;20054;-58
2020/12/21 07:41:18;;;;;;;108.95;19.95;;;9.70;99.90;;;;;;5100224;28;20433;-58
2020/12/21 07:44:36;;;;;;;111.80;20.13;;;9.50;99.90;;;;;;5087715;28;20059;-55
2020/12/21 07:47:42;;;;;;;85.90;19.15;;;9.00;99.90;;;;;;5080972;28;20040;-56
2020/12/21 07:50:47;;;;;;;151.02;22.98;;;8.70;99.90;;;;;;5087852;28;20450;-58
2020/12/21 07:53:51;;;;;;;50.70;18.17;;;8.50;99.90;;;;;;5080721;28;20039;-57
2020/12/21 07:57:02;;;;;;;79.13;19.55;;;9.00;99.90;;;;;;5097961;28;20508;-58
2020/12/21 08:00:06;;;;;;;42.72;18.92;;;9.70;99.90;;;;;;5091651;28;20051;-54
2020/12/21 08:03:11;;;;;;;26.98;18.38;;;10.90;99.90;;;;;;5096339;28;20058;-58
2020/12/21 08:06:18;;;;;;;72.65;18.17;;;12.90;99.90;;;;;;5098740;28;20031;-58
2020/12/21 08:09:27;;;;;;;46.05;18.17;;;14.00;99.90;;;;;;5094773;28;20039;-58
2020/12/21 08:12:32;;;;;;;81.70;18.05;;;14.70;99.90;;;;;;5095714;28;20050;-56
2020/12/21 08:15:36;;;;;;;204.07;22.63;;;14.70;99.90;;;;;;5097378;28;20508;-58
2020/12/21 08:18:45;;;;;;;97.65;17.38;;;13.30;99.90;;;;;;5096683;28;20519;-58
2020/12/21 08:21:49;;;;;;;58.50;15.48;;;13.30;99.90;;;;;;5090132;28;20532;-58
2020/12/21 08:25:09;;;;;;;15.88;13.77;;;13.90;99.90;;;;;;5090784;28;20090;-58
2020/12/21 08:28:24;;;;;;;18.35;14.48;;;14.70;99.90;;;;;;5090228;28;20055;-56
2020/12/21 08:31:28;;;;;;;21.00;16.83;;;15.20;99.90;;;;;;5085901;28;20509;-58
2020/12/21 08:34:31;;;;;;;20.00;16.15;;;15.70;99.90;;;;;;5092427;28;20035;-58
2020/12/21 08:37:37;;;;;;;26.92;19.13;;;16.80;99.30;;;;;;5098111;28;20047;-58
2020/12/21 08:40:41;;;;;;;31.38;17.17;;;17.20;97.60;;;;;;5100697;28;20043;-57
2020/12/21 08:43:46;;;;;;;107.30;19.88;;;15.90;98.30;;;;;;5088242;28;20412;-59
2020/12/21 08:46:53;;;;;;;79.78;17.88;;;14.90;99.90;;;;;;5092172;28;20047;-58
2020/12/21 08:49:57;;;;;;;113.30;17.20;;;15.70;99.90;;;;;;5092737;28;20073;-58
2020/12/21 08:53:01;;;;;;;86.72;15.40;;;16.10;99.90;;;;;;5090982;28;20630;-54
2020/12/21 08:56:12;;;;;;;90.78;16.13;;;16.60;98.50;;;;;;5096065;28;20050;-57
2020/12/21 08:59:16;;;;;;;;;;;16.70;98.40;;;;;;5088416;28;20066;-55
2020/12/21 09:02:21;;;;;;;19.00;15.25;;;18.50;98.00;;;;;;5088665;28;19922;-57
2020/12/21 09:05:26;;;;;;;16.65;14.15;;;20.90;95.60;;;;;;5087503;28;20039;-55
2020/12/21 09:08:31;;;;;;;16.40;14.70;;;23.20;92.00;;;;;;5089231;28;20050;-58
2020/12/21 09:11:35;;;;;;;14.18;12.68;;;24.70;84.40;;;;;;5090400;28;20051;-58
2020/12/21 09:14:39;;;;;;;14.15;12.43;;;26.20;79.90;;;;;;5086970;28;20059;-57
2020/12/21 09:17:43;;;;;;;12.88;11.57;;;27.20;73.10;;;;;;5089755;28;20043;-58
2020/12/21 09:20:47;;;;;;;12.75;11.30;;;27.70;68.00;;;;;;5088542;28;20051;-60
2020/12/21 09:23:53;;;;;;;12.38;11.20;;;27.70;65.70;;;;;;5087977;28;20054;-59
2020/12/21 09:26:59;;;;;;;12.27;11.15;;;26.80;65.50;;;;;;5083965;28;20035;-60
2020/12/21 09:30:03;;;;;;;13.10;11.90;;;23.60;67.40;;;;;;5082814;28;20295;-59
2020/12/21 09:33:07;;;;;;;22.50;13.05;;;19.50;72.30;;;;;;5084055;28;20035;-59
2020/12/21 09:36:12;;;;;;;64.88;15.27;;;18.90;78.40;;;;;;5080757;28;20130;-58
2020/12/21 09:39:16;;;;;;;140.45;17.77;;;17.20;80.10;;;;;;5083965;28;20051;-58
2020/12/21 09:42:21;;;;;;;195.77;21.55;;;16.20;85.40;;;;;;5082283;28;20417;-58
2020/12/21 09:45:24;;;;;;;57.65;18.85;;;14.90;91.00;;;;;;5084119;28;20035;-58
2020/12/21 09:48:29;;;;;;;149.35;20.30;;;14.70;94.10;;;;;;5086134;28;20035;-55
2020/12/21 09:51:34;;;;;;;23.60;17.70;;;15.10;93.80;;;;;;5085220;28;20043;-56
2020/12/21 09:54:38;;;;;;;54.53;16.40;;;15.30;94.70;;;;;;5081439;28;20070;-59
2020/12/21 09:57:43;;;;;;;25.98;16.38;;;15.90;94.90;;;;;;5081209;28;20051;-57
2020/12/21 10:00:47;;;;;;;30.30;15.98;;;16.80;93.80;;;;;;5070631;28;20043;-59
2020/12/21 10:03:51;;;;;;;17.80;14.95;;;18.70;91.90;;;;;;5084800;28;20047;-53
2020/12/21 10:06:56;;;;;;;17.08;14.45;;;21.30;86.70;;;;;;5084016;28;20047;-55
2020/12/21 10:10:02;;;;;;;17.92;14.45;;;23.20;78.20;;;;;;5085149;28;20619;-55
2020/12/21 10:13:06;;;;;;;16.08;14.40;;;23.00;74.80;;;;;;5081196;28;20035;-55
2020/12/21 10:16:10;;;;;;;18.80;13.73;;;21.60;76.30;;;;;;5084193;28;20039;-56
2020/12/21 10:19:14;;;;;;;14.68;13.15;;;21.10;77.30;;;;;;5089048;28;20039;-58
2020/12/21 10:22:19;;;;;;;14.90;12.80;;;22.00;77.30;;;;;;5088161;28;20054;-57
2020/12/21 10:25:23;;;;;;;14.85;13.35;;;24.30;72.60;;;;;;5096689;28;20043;-58
2020/12/21 10:28:28;;;;;;;12.27;11.07;;;25.00;68.60;;;;;;5085553;28;20047;-59
2020/12/21 10:31:32;;;;;;;12.95;11.73;;;25.60;69.00;;;;;;5096549;28;20046;-59
2020/12/21 10:34:36;;;;;;;12.75;11.45;;;26.50;66.90;;;;;;5098067;28;20047;-58
2020/12/21 10:37:41;;;;;;;12.93;11.65;;;27.50;65.60;;;;;;5093909;28;20043;-59
2020/12/21 10:40:44;;;;;;;12.00;10.90;;;28.80;62.10;;;;;;5082193;28;20051;-57
2020/12/21 10:43:50;;;;;;;11.30;10.05;;;28.70;60.90;;;;;;5088526;28;20051;-56
2020/12/21 10:46:57;;;;;;;11.27;10.27;;;28.70;59.40;;;;;;5089312;28;20042;-57
2020/12/21 10:50:02;;;;;;;12.00;10.90;;;29.50;58.40;;;;;;5085825;28;20050;-56
2020/12/21 10:53:06;;;;;;;11.85;10.75;;;28.00;58.50;;;;;;5089595;28;20035;-59
2020/12/21 10:56:13;;;;;;;11.98;10.88;;;27.90;57.40;;;;;;5084460;28;20043;-59
2020/12/21 10:59:17;;;;;;;12.10;10.90;;;26.80;59.00;;;;;;5099440;28;20035;-58
2020/12/21 11:02:21;;;;;;;12.88;11.63;;;27.70;59.60;;;;;;5092034;28;20066;-58
2020/12/21 11:05:25;;;;;;;12.65;11.45;;;27.00;59.60;;;;;;5096676;28;20047;-57
2020/12/21 11:08:30;;;;;;;13.25;12.00;;;28.10;58.40;;;;;;5099135;28;20054;-58
2020/12/21 11:11:34;;;;;;;13.98;12.57;;;27.00;58.50;;;;;;5095139;28;20118;-59
2020/12/21 11:14:38;;;;;;;14.40;12.90;;;25.50;60.90;;;;;;5089799;28;20043;-59
2020/12/21 11:17:43;;;;;;;15.57;13.98;;;24.10;62.60;;;;;;5092002;28;20519;-58
2020/12/21 11:20:47;;;;;;;16.33;14.63;;;22.80;63.50;;;;;;5092609;28;20394;-59
2020/12/21 11:23:51;;;;;;;16.10;14.40;;;19.80;73.20;;;;;;5098857;28;20083;-59
2020/12/21 11:26:55;;;;;;;15.65;14.07;;;19.80;73.60;;;;;;5094347;28;20066;-57
2020/12/21 11:29:59;;;;;;;18.52;16.58;;;21.70;70.80;;;;;;5093650;28;20044;-55
2020/12/21 11:33:03;;;;;;;17.10;15.30;;;19.00;74.70;;;;;;5097855;28;20047;-58
2020/12/21 11:36:07;;;;;;;19.33;15.15;;;19.90;73.00;;;;;;5101672;28;20046;-58
2020/12/21 11:39:12;;;;;;;17.92;15.15;;;20.60;73.10;;;;;;5094169;28;20050;-56
2020/12/21 11:42:16;;;;;;;17.20;14.93;;;22.00;71.20;;;;;;5094920;28;20410;-57
2020/12/21 11:45:21;;;;;;;16.58;14.80;;;22.60;70.10;;;;;;5097665;28;20050;-58
2020/12/21 11:48:25;;;;;;;20.13;16.08;;;23.30;68.50;;;;;;5099048;28;20046;-58
2020/12/21 11:51:30;;;;;;;18.05;15.48;;;22.70;69.80;;;;;;5092064;28;20111;-57
2020/12/21 11:54:34;;;;;;;18.45;16.52;;;22.10;71.20;;;;;;5082484;28;20524;-55
2020/12/21 11:57:38;;;;;;;18.23;16.33;;;22.20;71.00;;;;;;5084249;28;20129;-55
2020/12/21 12:00:42;;;;;;;21.88;17.75;;;21.70;73.40;;;;;;5091169;28;20043;-58
2020/12/21 12:03:47;;;;;;;19.90;16.38;;;21.20;73.60;;;;;;5099467;28;20042;-54
2020/12/21 12:06:53;;;;;;;18.60;16.67;;;22.70;71.30;;;;;;5094844;28;20397;-56
2020/12/21 12:09:57;;;;;;;20.45;16.10;;;23.50;70.10;;;;;;5090167;28;20395;-58
2020/12/21 12:13:01;;;;;;;18.02;16.13;;;24.70;69.90;;;;;;5090260;28;20039;-58
2020/12/21 12:16:06;;;;;;;19.90;15.95;;;24.70;68.70;;;;;;5094594;28;20052;-59
2020/12/21 12:19:10;;;;;;;19.85;17.45;;;23.60;68.70;;;;;;5082801;28;20047;-58
2020/12/21 12:22:14;;;;;;;18.77;16.73;;;22.00;70.60;;;;;;5099242;28;20047;-59
2020/12/21 12:25:18;;;;;;;20.90;17.80;;;21.50;73.50;;;;;;5098306;28;20035;-59
2020/12/21 12:28:22;;;;;;;19.38;16.55;;;22.00;74.20;;;;;;5075682;28;20607;-59
2020/12/21 12:31:26;;;;;;;19.55;16.92;;;22.50;73.80;;;;;;5085655;28;20052;-58
2020/12/21 12:34:30;;;;;;;19.52;16.30;;;22.90;72.70;;;;;;5100642;28;20047;-56
2020/12/21 12:37:34;;;;;;;22.85;17.45;;;23.40;71.60;;;;;;5099736;28;20039;-59
2020/12/21 12:40:38;;;;;;;19.95;17.10;;;23.50;69.80;;;;;;5093356;28;20058;-58
2020/12/21 12:43:43;;;;;;;19.85;16.77;;;23.10;71.60;;;;;;5099620;28;20050;-58
2020/12/21 12:46:47;;;;;;;21.92;19.25;;;22.70;72.40;;;;;;5094046;28;20038;-58
2020/12/21 12:49:52;;;;;;;22.40;18.98;;;21.10;75.00;;;;;;5102540;28;20114;-57
2020/12/21 12:52:56;;;;;;;22.95;18.77;;;21.50;75.00;;;;;;5093107;28;20063;-56
2020/12/21 12:56:00;;;;;;;22.20;18.80;;;21.40;75.50;;;;;;5098069;28;20043;-57
2020/12/21 12:59:05;;;;;;;21.25;18.95;;;21.60;76.10;;;;;;5102666;28;20043;-54
2020/12/21 13:02:10;;;;;;;27.88;21.38;;;20.20;76.10;;;;;;5100250;28;20050;-56
2020/12/21 13:05:15;;;;;;;23.02;19.38;;;20.00;78.10;;;;;;5103443;28;20102;-56
2020/12/21 13:08:19;;;;;;;23.60;18.92;;;21.30;77.90;;;;;;5090681;28;20035;-58
2020/12/21 13:11:24;;;;;;;23.45;18.75;;;22.40;74.50;;;;;;5096269;28;20048;-58
2020/12/21 13:14:28;;;;;;;21.52;18.70;;;22.60;73.10;;;;;;5098667;28;20039;-56
2020/12/21 13:17:32;;;;;;;23.90;18.63;;;22.70;75.00;;;;;;5094692;28;20062;-57
2020/12/21 13:20:36;;;;;;;19.10;16.98;;;23.40;72.20;;;;;;5096166;28;20038;-55
2020/12/21 13:23:41;;;;;;;23.05;17.95;;;23.30;71.60;;;;;;5101194;28;20042;-55
2020/12/21 13:26:49;;;;;;;20.10;17.42;;;23.90;71.70;;;;;;5101311;28;20046;-56
2020/12/21 13:29:53;;;;;;;24.05;17.60;;;23.80;71.40;;;;;;5098859;28;20039;-55
2020/12/21 13:32:58;;;;;;;23.88;19.20;;;23.40;71.10;;;;;;5098420;28;20665;-56
2020/12/21 13:36:02;;;;;;;21.98;18.08;;;22.00;74.30;;;;;;5099041;28;20046;-58
2020/12/21 13:39:06;;;;;;;20.95;17.10;;;22.30;73.70;;;;;;5104243;28;20047;-57
2020/12/21 13:42:10;;;;;;;28.15;20.08;;;21.50;76.00;;;;;;5098539;28;20043;-56
2020/12/21 13:45:15;;;;;;;23.42;20.23;;;21.10;76.20;;;;;;5091586;28;20509;-53
2020/12/21 13:48:19;;;;;;;28.65;20.75;;;20.10;79.30;;;;;;5095108;28;20051;-55
2020/12/21 13:51:23;;;;;;;27.27;21.25;;;19.10;81.30;;;;;;5099231;28;20055;-55
2020/12/21 13:54:28;;;;;;;27.60;21.73;;;18.70;83.60;;;;;;5099016;28;20043;-54
2020/12/21 13:57:32;;;;;;;28.00;21.83;;;17.90;87.00;;;;;;5095506;28;20043;-55
2020/12/21 14:00:36;;;;;;;29.42;22.05;;;17.30;89.20;;;;;;5099721;28;20043;-55
2020/12/21 14:03:40;;;;;;;29.38;21.20;;;16.90;91.20;;;;;;5096668;28;20043;-54
2020/12/21 14:06:44;;;;;;;31.70;22.05;;;16.30;92.30;;;;;;5093853;28;20158;-53
2020/12/21 14:09:49;;;;;;;35.35;22.25;;;15.80;93.90;;;;;;5093779;28;20054;-55
2020/12/21 14:12:53;;;;;;;27.60;21.42;;;15.40;96.70;;;;;;5099523;28;20568;-56
2020/12/21 14:15:57;;;;;;;29.88;20.73;;;15.10;98.90;;;;;;5100002;28;20043;-55
2020/12/21 14:19:01;;;;;;;28.77;20.63;;;15.40;99.70;;;;;;5100628;28;20058;-53
2020/12/21 14:22:05;;;;;;;29.00;20.17;;;15.40;99.90;;;;;;5092564;28;20035;-52
2020/12/21 14:25:28;;;;;;;28.08;19.88;;;15.00;99.90;;;;;;5099773;28;20035;-55
2020/12/21 14:28:34;;;;;;;27.58;19.73;;;14.70;99.90;;;;;;5094493;28;20051;-55
2020/12/21 14:31:39;;;;;;;28.65;19.70;;;14.80;99.90;;;;;;5100849;28;20062;-53
2020/12/21 14:34:43;;;;;;;24.88;18.40;;;14.70;99.90;;;;;;5085309;28;20039;-55
2020/12/21 14:37:47;;;;;;;30.77;19.90;;;14.50;99.90;;;;;;5091040;28;20055;-52
2020/12/21 14:40:52;;;;;;;25.60;18.73;;;14.20;99.90;;;;;;5090735;28;20043;-55
2020/12/21 14:43:59;;;;;;;28.83;19.23;;;14.10;99.90;;;;;;5094051;28;20043;-55
2020/12/21 14:47:04;;;;;;;32.13;20.33;;;14.10;99.90;;;;;;5081879;28;20043;-56
2020/12/21 14:50:09;;;;;;;31.30;20.88;;;13.90;99.90;;;;;;5078253;28;20058;-54
2020/12/21 14:53:13;;;;;;;31.65;20.83;;;13.70;99.90;;;;;;5089789;28;20039;-55
2020/12/21 14:56:17;;;;;;;31.63;21.40;;;13.60;99.90;;;;;;5090782;28;20059;-55
2020/12/21 14:59:22;;;;;;;35.60;21.15;;;13.50;99.90;;;;;;5090000;28;20047;-54
2020/12/21 15:02:27;;;;;;;28.58;20.48;;;13.40;99.90;;;;;;5090439;28;20063;-54
2020/12/21 15:05:30;;;;;;;40.50;27.17;;;13.10;99.90;;;;;;5079688;28;20035;-54
2020/12/21 15:08:35;;;;;;;41.33;25.25;;;12.80;99.90;;;;;;5089719;28;20067;-55
2020/12/21 15:11:39;;;;;;;33.00;22.83;;;12.60;99.90;;;;;;5090425;28;20047;-54
2020/12/21 15:14:43;;;;;;;47.38;22.10;;;12.50;99.90;;;;;;5089887;28;20043;-54
2020/12/21 15:17:47;;;;;;;35.75;23.80;;;12.50;99.90;;;;;;5098022;28;20624;-54
2020/12/21 15:20:51;;;;;;;42.25;27.13;;;12.40;99.90;;;;;;5090190;28;20051;-56
2020/12/21 15:23:56;;;;;;;42.65;27.38;;;12.40;99.90;;;;;;5076099;28;20047;-55
2020/12/21 15:27:01;;;;;;;41.50;23.83;;;12.50;99.90;;;;;;5088479;28;20035;-54
2020/12/21 15:30:24;;;;;;;43.95;26.23;;;12.40;99.90;;;;;;5088062;28;20051;-54
2020/12/21 15:33:27;;;;;;;51.97;32.10;;;12.20;99.90;;;;;;5088451;28;20051;-54
2020/12/21 15:36:31;;;;;;;92.85;49.67;;;12.00;99.90;;;;;;5089563;28;20047;-54
2020/12/21 15:39:36;;;;;;;88.32;48.20;;;11.90;99.90;;;;;;5085836;28;20050;-55
2020/12/21 15:42:40;;;;;;;109.65;61.75;;;11.80;99.90;;;;;;5075967;28;20090;-54